Time;durP1;ratioP1;P1;durP2;ratioP2;P2;SDS_P1;SDS_P2;PMS_P1;PMS_P2;Temp;Humidity;BMP_temperature;BMP_pressure;BME280_temperature;BME280_humidity;BME280_pressure;Samples;Min_cycle;Max_cycle;Signal;HPM_P1;HPM_P2
2023/12/21 00:04:03;;;;;;;;;;;;;;;3.68;100.00;95438.75;10600800;27;1903;-68
2023/12/21 00:09:11;;;;;;;;;;;;;;;3.73;100.00;95431.69;10582694;27;1891;-70
2023/12/21 00:14:16;;;;;;;;;;;;;;;3.80;100.00;95426.22;10597433;27;2056;-68
2023/12/21 00:19:21;;;;;;;;;;;;;;;3.81;100.00;95398.56;10589616;27;2377;-69
2023/12/21 00:24:25;;;;;;;;;;;;;;;3.84;100.00;95390.13;10600018;27;1878;-71
2023/12/21 00:29:35;;;;;;;;;;;;;;;3.80;100.00;95399.63;10586866;27;2110;-69
2023/12/21 00:34:42;;;;;;;;;;;;;;;3.75;100.00;95403.03;10583187;27;2124;-68
2023/12/21 00:39:48;;;;;;;;;;;;;;;3.73;100.00;95394.47;10598967;27;2051;-68
2023/12/21 00:44:51;;;;;;;;;;;;;;;3.71;100.00;95385.13;10577172;27;4975;-72
2023/12/21 00:49:59;;;;;;;;;;;;;;;3.85;100.00;95381.09;10583067;27;2254;-70
2023/12/21 00:55:04;;;;;;;;;;;;;;;3.84;100.00;95389.31;10600016;27;2067;-68
2023/12/21 01:00:14;;;;;;;;;;;;;;;3.91;100.00;95376.69;10574913;27;2047;-67
2023/12/21 01:05:20;;;;;;;;;;;;;;;3.91;100.00;95385.47;10616741;27;2012;-67
2023/12/21 01:10:38;;;;;;;;;;;;;;;3.94;100.00;95376.19;10579234;27;2072;-71
2023/12/21 01:15:49;;;;;;;;;;;;;;;4.05;100.00;95381.44;10597995;27;1916;-73
2023/12/21 01:20:55;;;;;;;;;;;;;;;4.06;100.00;95388.34;10599174;27;1995;-68
2023/12/21 01:26:00;;;;;;;;;;;;;;;4.08;100.00;95401.44;10587211;27;1889;-73
2023/12/21 01:31:05;;;;;;;;;;;;;;;4.10;100.00;95393.19;10594323;27;1939;-68
2023/12/21 01:36:08;;;;;;;;;;;;;;;4.10;100.00;95380.72;10597522;27;2011;-69
2023/12/21 01:41:11;;;;;;;;;;;;;;;4.19;100.00;95373.13;10587503;27;4943;-68
2023/12/21 01:46:17;;;;;;;;;;;;;;;4.16;100.00;95357.66;10561130;27;2696;-68
2023/12/21 01:51:23;;;;;;;;;;;;;;;4.15;100.00;95372.81;10600084;27;1982;-67
2023/12/21 01:56:29;;;;;;;;;;;;;;;4.15;100.00;95370.16;10581429;27;1977;-68
2023/12/21 02:07:17;;;;;;;;;;;;;;;4.15;100.00;95359.50;10587338;27;1907;-67
2023/12/21 02:12:24;;;;;;;;;;;;;;;4.04;100.00;95353.22;10574774;27;1975;-68
2023/12/21 02:17:28;;;;;;;;;;;;;;;3.90;100.00;95348.47;10590480;27;2063;-69
2023/12/21 02:22:33;;;;;;;;;;;;;;;3.71;100.00;95354.03;10588814;27;2031;-70
2023/12/21 02:27:36;;;;;;;;;;;;;;;3.57;100.00;95344.75;10597462;27;1936;-69
2023/12/21 02:32:40;;;;;;;;;;;;;;;3.51;100.00;95349.19;10605991;27;2084;-68
2023/12/21 02:37:45;;;;;;;;;;;;;;;3.41;100.00;95337.56;10580099;27;2125;-67
2023/12/21 02:42:52;;;;;;;;;;;;;;;3.40;100.00;95330.63;10594969;27;4884;-68
2023/12/21 02:47:55;;;;;;;;;;;;;;;3.33;100.00;95314.03;10605819;27;2027;-68
2023/12/21 02:52:59;;;;;;;;;;;;;;;3.29;100.00;95312.91;10585445;27;2006;-68
2023/12/21 02:58:10;;;;;;;;;;;;;;;3.35;100.00;95322.56;10600237;27;1891;-68
2023/12/21 03:03:22;;;;;;;;;;;;;;;3.43;100.00;95292.94;10599850;27;1922;-69
2023/12/21 03:08:26;;;;;;;;;;;;;;;3.42;100.00;95299.31;10594104;27;2202;-70
2023/12/21 03:13:31;;;;;;;;;;;;;;;3.35;100.00;95293.34;10585629;27;2075;-67
2023/12/21 03:18:34;;;;;;;;;;;;;;;3.34;100.00;95284.56;10590700;27;1997;-68
2023/12/21 03:23:40;;;;;;;;;;;;;;;3.25;100.00;95254.94;10594374;27;1987;-67
2023/12/21 03:28:45;;;;;;;;;;;;;;;3.27;100.00;95232.66;10587810;27;2296;-66
2023/12/21 03:33:50;;;;;;;;;;;;;;;3.28;100.00;95236.91;10595771;27;1949;-68
2023/12/21 03:39:04;;;;;;;;;;;;;;;3.36;100.00;95220.56;10600421;27;2439;-71
2023/12/21 03:44:08;;;;;;;;;;;;;;;3.36;100.00;95196.66;10599215;27;5119;-71
2023/12/21 03:49:13;;;;;;;;;;;;;;;3.36;100.00;95197.44;10614830;27;2197;-67
2023/12/21 03:54:21;;;;;;;;;;;;;;;3.38;100.00;95170.66;10590014;27;2085;-68
2023/12/21 03:59:25;;;;;;;;;;;;;;;3.34;100.00;95177.50;10590169;27;1876;-68
2023/12/21 04:04:31;;;;;;;;;;;;;;;3.40;100.00;95166.72;10608448;27;2039;-66
2023/12/21 04:09:34;;;;;;;;;;;;;;;3.47;100.00;95146.09;10588699;27;2318;-75
2023/12/21 04:14:38;;;;;;;;;;;;;;;3.62;100.00;95128.72;10586770;27;1965;-66
2023/12/21 04:19:41;;;;;;;;;;;;;;;3.69;100.00;95140.81;10610627;27;1870;-69
2023/12/21 04:24:45;;;;;;;;;;;;;;;3.76;100.00;95130.00;10599382;27;1931;-67
2023/12/21 04:29:50;;;;;;;;;;;;;;;3.83;100.00;95111.22;10586023;27;1875;-67
2023/12/21 04:34:55;;;;;;;;;;;;;;;3.91;100.00;95111.56;10583822;27;2581;-69
2023/12/21 04:40:00;;;;;;;;;;;;;;;4.03;100.00;95106.13;10584607;27;1881;-69
2023/12/21 04:45:10;;;;;;;;;;;;;;;4.12;100.00;95107.28;10603422;27;4915;-68
2023/12/21 04:50:15;;;;;;;;;;;;;;;4.16;100.00;95088.97;10597143;27;2326;-68
2023/12/21 04:55:19;;;;;;;;;;;;;;;4.23;100.00;95090.38;10596127;27;2434;-68
2023/12/21 05:00:22;;;;;;;;;;;;;;;4.31;100.00;95092.59;10607182;27;1885;-69
2023/12/21 05:05:35;;;;;;;;;;;;;;;4.30;100.00;95061.72;10594990;27;1900;-68
2023/12/21 05:10:51;;;;;;;;;;;;;;;4.33;100.00;95058.56;10601372;27;1920;-69
2023/12/21 05:15:54;;;;;;;;;;;;;;;4.32;100.00;95059.59;10594707;27;1921;-68
2023/12/21 05:20:57;;;;;;;;;;;;;;;4.37;100.00;95064.19;10613306;27;2008;-68
2023/12/21 05:26:02;;;;;;;;;;;;;;;4.39;100.00;95046.13;10596634;27;1926;-68
2023/12/21 05:31:10;;;;;;;;;;;;;;;4.33;100.00;95053.25;10590220;27;2268;-68
2023/12/21 05:36:18;;;;;;;;;;;;;;;4.37;100.00;95047.41;10588407;27;1918;-68
2023/12/21 05:41:23;;;;;;;;;;;;;;;4.33;100.00;95047.94;10601790;27;4658;-67
2023/12/21 05:46:26;;;;;;;;;;;;;;;4.40;100.00;95041.59;10575756;27;2262;-66
2023/12/21 05:51:33;;;;;;;;;;;;;;;4.45;100.00;95030.97;10598475;27;2050;-69
2023/12/21 05:56:36;;;;;;;;;;;;;;;4.48;100.00;95038.47;10595727;27;2062;-71
2023/12/21 06:01:46;;;;;;;;;;;;;;;4.57;100.00;95039.59;10564075;27;1897;-68
2023/12/21 06:06:54;;;;;;;;;;;;;;;4.72;100.00;95030.97;10577938;27;2038;-68
2023/12/21 06:12:03;;;;;;;;;;;;;;;4.80;100.00;95017.16;10603570;27;2149;-68
2023/12/21 06:17:11;;;;;;;;;;;;;;;4.84;100.00;94996.97;10584155;27;1984;-68
2023/12/21 06:22:17;;;;;;;;;;;;;;;4.89;100.00;94965.81;10597600;27;2059;-68
2023/12/21 06:27:21;;;;;;;;;;;;;;;4.99;100.00;95007.72;10579440;27;2626;-68
2023/12/21 06:32:32;;;;;;;;;;;;;;;5.02;100.00;95011.72;10581453;27;1988;-69
2023/12/21 06:37:48;;;;;;;;;;;;;;;5.08;100.00;94987.50;10576924;27;1890;-68
2023/12/21 06:43:00;;;;;;;;;;;;;;;5.20;100.00;94979.31;10595275;27;4880;-68
2023/12/21 06:48:07;;;;;;;;;;;;;;;5.15;100.00;94995.25;10591118;27;2142;-68
2023/12/21 06:53:17;;;;;;;;;;;;;;;5.21;100.00;94967.59;10584531;27;1907;-67
2023/12/21 06:58:20;;;;;;;;;;;;;;;5.19;100.00;94940.41;10592922;27;1899;-67
2023/12/21 07:03:27;;;;;;;;;;;;;;;5.27;100.00;94950.56;10581484;27;2178;-68
2023/12/21 07:08:32;;;;;;;;;;;;;;;5.37;100.00;94955.94;10591867;27;2131;-73
2023/12/21 07:13:48;;;;;;;;;;;;;;;5.37;100.00;94953.28;10585054;27;1985;-72
2023/12/21 07:18:51;;;;;;;;;;;;;;;5.48;100.00;94940.81;10581551;27;1884;-70
2023/12/21 07:23:57;;;;;;;;;;;;;;;5.48;100.00;94940.81;10596472;27;2063;-71
2023/12/21 07:29:05;;;;;;;;;;;;;;;5.62;100.00;94917.13;10569794;27;1884;-69
2023/12/21 07:34:08;;;;;;;;;;;;;;;5.57;100.00;94906.44;10600553;27;1946;-75
2023/12/21 07:39:13;;;;;;;;;;;;;;;5.59;100.00;94898.97;10596201;27;1911;-71
2023/12/21 07:44:18;;;;;;;;;;;;;;;5.74;100.00;94888.34;10582290;27;4935;-71
2023/12/21 07:49:35;;;;;;;;;;;;;;;5.85;100.00;94881.13;10602700;27;2231;-70
2023/12/21 07:54:41;;;;;;;;;;;;;;;6.00;100.00;94867.84;10603072;27;1915;-71
2023/12/21 07:59:47;;;;;;;;;;;;;;;6.01;100.00;94852.66;10599532;27;2027;-72
2023/12/21 08:04:52;;;;;;;;;;;;;;;6.10;100.00;94814.47;10602197;27;1878;-75
2023/12/21 08:10:05;;;;;;;;;;;;;;;6.22;100.00;94835.56;10597045;27;2122;-71
2023/12/21 08:15:09;;;;;;;;;;;;;;;6.19;100.00;94820.09;10598039;27;2107;-71
2023/12/21 08:20:18;;;;;;;;;;;;;;;6.28;100.00;94805.13;10594725;27;1990;-71
2023/12/21 08:25:26;;;;;;;;;;;;;;;6.36;100.00;94799.25;10565807;27;2060;-73
2023/12/21 08:30:54;;;;;;;;;;;;;;;6.40;100.00;94802.97;10599140;27;2000;-70
2023/12/21 08:36:01;;;;;;;;;;;;;;;6.42;100.00;94795.47;10583793;27;2017;-71
2023/12/21 08:41:06;;;;;;;;;;;;;;;6.49;100.00;94785.34;10588284;27;4951;-71
2023/12/21 08:46:09;;;;;;;;;;;;;;;6.50;100.00;94791.47;10598027;27;2221;-71
2023/12/21 08:51:33;;;;;;;;;;;;;;;6.63;100.00;94798.91;10597558;27;1974;-75
2023/12/21 08:56:57;;;;;;;;;;;;;;;6.71;100.00;94792.19;10592812;27;2368;-71
2023/12/21 09:02:11;;;;;;;;;;;;;;;6.67;100.00;94807.94;10602488;27;1963;-70
2023/12/21 09:07:21;;;;;;;;;;;;;;;6.75;100.00;94782.56;10597003;27;2057;-69
2023/12/21 09:12:31;;;;;;;;;;;;;;;6.84;100.00;94764.09;10568394;27;2552;-72
2023/12/21 09:17:36;;;;;;;;;;;;;;;6.92;100.00;94775.00;10603281;27;2083;-71
2023/12/21 09:22:47;;;;;;;;;;;;;;;6.88;100.00;94760.63;10599162;27;1914;-78
2023/12/21 09:27:57;;;;;;;;;;;;;;;6.87;100.00;94748.34;10607169;27;2063;-74
2023/12/21 09:33:32;;;;;;;;;;;;;;;6.97;100.00;94758.94;10576823;27;2040;-72
2023/12/21 09:38:46;;;;;;;;;;;;;;;7.01;100.00;94751.19;10603062;27;1903;-75
2023/12/21 09:43:49;;;;;;;;;;;;;;;7.00;100.00;94738.91;10580551;27;1968;-73
2023/12/21 09:48:58;;;;;;;;;;;;;;;7.03;100.00;94739.16;10580592;27;2361;-73
2023/12/21 09:54:07;;;;;;;;;;;;;;;7.11;100.00;94729.75;10578251;27;2397;-72
2023/12/21 09:59:13;;;;;;;;;;;;;;;7.08;100.00;94716.16;10593563;27;1943;-72
2023/12/21 10:04:19;;;;;;;;;;;;;;;7.11;100.00;94710.25;10573703;27;2132;-76
2023/12/21 10:09:31;;;;;;;;;;;;;;;7.07;100.00;94687.84;10582037;27;1902;-74
2023/12/21 10:14:39;;;;;;;;;;;;;;;7.11;100.00;94678.16;10574116;27;1909;-74
2023/12/21 10:19:55;;;;;;;;;;;;;;;7.08;100.00;94655.47;10580769;27;2122;-69
2023/12/21 10:25:02;;;;;;;;;;;;;;;7.11;100.00;94630.06;10591914;27;2197;-72
2023/12/21 10:30:18;;;;;;;;;;;;;;;7.11;100.00;94604.13;10595992;27;1921;-74
2023/12/21 10:35:26;;;;;;;;;;;;;;;7.19;100.00;94552.78;10596694;27;2082;-73
2023/12/21 10:40:33;;;;;;;;;;;;;;;7.13;100.00;94548.56;10585984;27;2043;-73
2023/12/21 10:45:41;;;;;;;;;;;;;;;7.23;100.00;94526.28;10593843;27;2027;-70
2023/12/21 10:50:53;;;;;;;;;;;;;;;7.28;100.00;94528.91;10596249;27;2456;-71
2023/12/21 10:56:02;;;;;;;;;;;;;;;7.36;100.00;94516.78;10585447;27;1999;-72
2023/12/21 11:01:14;;;;;;;;;;;;;;;7.44;100.00;94511.59;10579117;27;1903;-76
2023/12/21 11:06:33;;;;;;;;;;;;;;;7.47;100.00;94511.06;10587982;27;1928;-75
2023/12/21 11:11:41;;;;;;;;;;;;;;;7.57;100.00;94456.63;10601185;27;1822;-72
2023/12/21 11:16:49;;;;;;;;;;;;;;;7.61;100.00;94465.69;10603044;27;1968;-71
2023/12/21 11:22:00;;;;;;;;;;;;;;;7.63;100.00;94458.16;10599893;27;1924;-71
2023/12/21 11:27:22;;;;;;;;;;;;;;;7.63;100.00;94422.59;10582919;27;2217;-72
2023/12/21 11:32:29;;;;;;;;;;;;;;;7.67;100.00;94418.28;10583199;27;2024;-72
2023/12/21 11:37:35;;;;;;;;;;;;;;;7.59;100.00;94411.72;10591060;27;1996;-71
2023/12/21 11:42:51;;;;;;;;;;;;;;;7.59;100.00;94367.03;10583194;27;2327;-70
2023/12/21 11:48:00;;;;;;;;;;;;;;;7.58;100.00;94368.13;10589557;27;2344;-73
2023/12/21 11:53:07;;;;;;;;;;;;;;;7.63;100.00;94331.69;10607954;27;1953;-69
2023/12/21 11:58:18;;;;;;;;;;;;;;;7.62;100.00;94317.50;10605077;27;1925;-69
2023/12/21 12:03:25;;;;;;;;;;;;;;;7.67;100.00;94271.19;10599941;27;1950;-72
2023/12/21 12:08:29;;;;;;;;;;;;;;;7.68;100.00;94262.06;10600284;27;1984;-72
2023/12/21 12:13:34;;;;;;;;;;;;;;;7.71;100.00;94278.34;10581127;27;2155;-70
2023/12/21 12:18:43;;;;;;;;;;;;;;;7.67;100.00;94263.16;10601427;27;2059;-71
2023/12/21 12:23:47;;;;;;;;;;;;;;;7.72;100.00;94225.66;10585406;27;1878;-72
2023/12/21 12:28:53;;;;;;;;;;;;;;;7.69;100.00;94218.97;10611291;27;2018;-72
2023/12/21 12:39:32;;;;;;;;;;;;;;;7.73;100.00;94205.81;10595709;27;2074;-71
2023/12/21 12:44:35;;;;;;;;;;;;;;;7.75;100.00;94190.28;10588311;27;4857;-73
2023/12/21 12:49:53;;;;;;;;;;;;;;;7.71;100.00;94168.69;10606264;27;2274;-74
2023/12/21 12:54:56;;;;;;;;;;;;;;;7.72;100.00;94191.66;10599469;27;2092;-72
2023/12/21 13:00:00;;;;;;;;;;;;;;;7.73;100.00;94169.19;10595988;27;1924;-70
2023/12/21 13:05:05;;;;;;;;;;;;;;;7.77;100.00;94119.38;10581138;27;2057;-71
2023/12/21 13:10:14;;;;;;;;;;;;;;;7.77;100.00;94145.31;10597554;27;1897;-72
2023/12/21 13:15:31;;;;;;;;;;;;;;;7.71;100.00;94109.84;10586613;27;2066;-70
2023/12/21 13:20:36;;;;;;;;;;;;;;;7.71;100.00;94095.69;10603949;27;2144;-71
2023/12/21 13:25:43;;;;;;;;;;;;;;;7.79;100.00;94100.34;10582678;27;2079;-72
2023/12/21 13:31:02;;;;;;;;;;;;;;;7.64;100.00;94090.72;10600344;27;2125;-71
2023/12/21 13:36:09;;;;;;;;;;;;;;;7.58;100.00;94100.72;10579798;27;2495;-75
2023/12/21 13:41:16;;;;;;;;;;;;;;;7.63;100.00;94101.69;10593129;27;4755;-73
2023/12/21 13:46:24;;;;;;;;;;;;;;;7.77;100.00;94081.13;10603422;27;2314;-70
2023/12/21 13:51:30;;;;;;;;;;;;;;;7.83;100.00;94053.19;10617754;27;1994;-72
2023/12/21 13:56:34;;;;;;;;;;;;;;;7.89;100.00;94051.19;10576976;27;2228;-72
2023/12/21 14:01:40;;;;;;;;;;;;;;;7.86;100.00;94065.94;10587128;27;1930;-71
2023/12/21 14:06:45;;;;;;;;;;;;;;;7.83;100.00;94053.19;10581508;27;2052;-69
2023/12/21 14:11:50;;;;;;;;;;;;;;;7.84;100.00;94086.88;10618100;27;2111;-71
2023/12/21 14:16:55;;;;;;;;;;;;;;;7.77;100.00;94083.78;10578681;27;1992;-71
2023/12/21 14:22:02;;;;;;;;;;;;;;;7.81;100.00;94087.44;10595707;27;1975;-72
2023/12/21 14:27:06;;;;;;;;;;;;;;;7.82;100.00;94100.56;10580196;27;1995;-72
2023/12/21 14:32:09;;;;;;;;;;;;;;;7.75;100.00;94104.69;10582101;27;2229;-72
2023/12/21 14:37:15;;;;;;;;;;;;;;;7.66;100.00;94111.81;10592800;27;1925;-73
2023/12/21 14:42:21;;;;;;;;;;;;;;;7.22;100.00;94119.25;10604169;27;5038;-71
2023/12/21 14:47:32;;;;;;;;;;;;;;;6.91;100.00;94102.91;10604639;27;2191;-70
2023/12/21 14:52:36;;;;;;;;;;;;;;;6.70;100.00;94131.78;10585808;27;1982;-71
2023/12/21 14:57:40;;;;;;;;;;;;;;;6.57;100.00;94137.06;10587233;27;1976;-71
2023/12/21 15:02:43;;;;;;;;;;;;;;;6.54;100.00;94141.09;10598004;27;1988;-74
2023/12/21 15:07:50;;;;;;;;;;;;;;;6.60;100.00;94149.81;10600275;27;1889;-73
2023/12/21 15:13:01;;;;;;;;;;;;;;;6.57;100.00;94134.41;10601757;27;2292;-74
2023/12/21 15:18:05;;;;;;;;;;;;;;;6.55;100.00;94115.97;10589093;27;1979;-73
2023/12/21 15:23:11;;;;;;;;;;;;;;;6.45;100.00;94132.94;10597570;27;2075;-72
2023/12/21 15:28:14;;;;;;;;;;;;;;;6.40;100.00;94122.31;10593208;27;2023;-71
2023/12/21 15:33:20;;;;;;;;;;;;;;;6.35;100.00;94109.03;10583835;27;2063;-73
2023/12/21 15:38:31;;;;;;;;;;;;;;;6.35;100.00;94110.91;10602995;27;2009;-71
2023/12/21 15:43:34;;;;;;;;;;;;;;;6.30;100.00;94093.13;10597187;27;4853;-72
2023/12/21 15:48:52;;;;;;;;;;;;;;;6.28;100.00;94079.25;10599049;27;2154;-71
2023/12/21 15:53:59;;;;;;;;;;;;;;;6.23;100.00;94072.13;10585975;27;1964;-71
2023/12/21 15:59:16;;;;;;;;;;;;;;;6.31;100.00;94065.34;10606155;27;1980;-72
2023/12/21 16:04:30;;;;;;;;;;;;;;;6.37;100.00;94050.84;10600221;27;1987;-72
2023/12/21 16:09:47;;;;;;;;;;;;;;;6.39;100.00;94055.91;10627601;27;2000;-71
2023/12/21 16:14:51;;;;;;;;;;;;;;;6.50;100.00;94033.31;10600428;27;1875;-72
2023/12/21 16:19:57;;;;;;;;;;;;;;;6.60;100.00;94029.69;10613573;27;2243;-71
2023/12/21 16:25:02;;;;;;;;;;;;;;;6.69;100.00;94018.06;10590309;27;1953;-71
2023/12/21 16:30:07;;;;;;;;;;;;;;;6.72;100.00;94003.31;10577936;27;2079;-71
2023/12/21 16:35:23;;;;;;;;;;;;;;;6.83;100.00;93986.06;10601661;27;2110;-72
2023/12/21 16:40:27;;;;;;;;;;;;;;;6.87;100.00;93967.53;10600150;27;1905;-68
2023/12/21 16:45:37;;;;;;;;;;;;;;;6.93;100.00;93967.16;10589438;27;4996;-68
2023/12/21 16:50:49;;;;;;;;;;;;;;;6.99;100.00;93960.66;10581607;27;2118;-70
2023/12/21 16:55:54;;;;;;;;;;;;;;;7.03;100.00;93972.34;10586654;27;1944;-74
2023/12/21 17:01:00;;;;;;;;;;;;;;;7.07;100.00;93977.09;10582915;27;1847;-71
2023/12/21 17:06:05;;;;;;;;;;;;;;;7.10;100.00;93969.28;10596622;27;1899;-68
2023/12/21 17:11:08;;;;;;;;;;;;;;;7.20;100.00;93955.75;10595435;27;2529;-70
2023/12/21 17:16:14;;;;;;;;;;;;;;;7.23;100.00;93979.19;10600027;27;2157;-68
2023/12/21 17:21:20;;;;;;;;;;;;;;;7.30;100.00;93955.53;10592486;27;2079;-69
2023/12/21 17:26:26;;;;;;;;;;;;;;;7.39;100.00;93928.91;10601788;27;1941;-70
2023/12/21 17:31:33;;;;;;;;;;;;;;;7.38;100.00;93929.19;10582696;27;2082;-69
2023/12/21 17:36:40;;;;;;;;;;;;;;;7.50;100.00;93943.63;10596747;27;1953;-68
2023/12/21 17:41:49;;;;;;;;;;;;;;;7.55;100.00;93946.22;10596542;27;2249;-66
2023/12/21 17:46:59;;;;;;;;;;;;;;;7.53;100.00;93910.97;10599834;27;1890;-68
2023/12/21 17:52:03;;;;;;;;;;;;;;;7.59;100.00;93938.41;10602764;27;2044;-68
2023/12/21 17:57:07;;;;;;;;;;;;;;;7.63;100.00;93919.84;10598264;27;2103;-69
2023/12/21 18:02:11;;;;;;;;;;;;;;;7.67;100.00;93910.16;10563228;27;1890;-68
2023/12/21 18:07:17;;;;;;;;;;;;;;;7.73;100.00;93908.94;10570437;27;1954;-69
2023/12/21 18:12:23;;;;;;;;;;;;;;;7.78;100.00;93895.47;10601265;27;2035;-69
2023/12/21 18:17:31;;;;;;;;;;;;;;;7.80;100.00;93899.41;10584177;27;1970;-70
2023/12/21 18:22:37;;;;;;;;;;;;;;;7.77;100.00;93891.22;10590908;27;1918;-67
2023/12/21 18:27:53;;;;;;;;;;;;;;;7.77;100.00;93900.03;10594142;27;1953;-68
2023/12/21 18:33:12;;;;;;;;;;;;;;;7.76;100.00;93886.94;10598754;27;2024;-67
2023/12/21 18:38:18;;;;;;;;;;;;;;;7.70;100.00;93888.13;10595140;27;2095;-69
2023/12/21 18:43:21;;;;;;;;;;;;;;;7.73;100.00;93892.91;10589987;27;4936;-68
2023/12/21 18:48:28;;;;;;;;;;;;;;;7.75;100.00;93883.47;10582153;27;2426;-68
2023/12/21 18:53:33;;;;;;;;;;;;;;;7.84;100.00;93892.38;10593489;27;1889;-68
2023/12/21 18:58:39;;;;;;;;;;;;;;;7.91;100.00;93889.28;10602168;27;1945;-67
2023/12/21 19:03:45;;;;;;;;;;;;;;;7.89;100.00;93891.47;10595288;27;1957;-70
2023/12/21 19:08:56;;;;;;;;;;;;;;;7.88;100.00;93868.47;10598621;27;2043;-71
2023/12/21 19:14:01;;;;;;;;;;;;;;;7.77;100.00;93880.53;10568849;27;2032;-71
2023/12/21 19:19:07;;;;;;;;;;;;;;;7.73;100.00;93877.66;10602275;27;1980;-67
2023/12/21 19:24:10;;;;;;;;;;;;;;;7.79;100.00;93897.06;10601736;27;1923;-67
2023/12/21 19:29:17;;;;;;;;;;;;;;;7.84;100.00;93835.41;10603772;27;2049;-70
2023/12/21 19:34:25;;;;;;;;;;;;;;;7.83;100.00;93868.63;10607351;27;2666;-78
2023/12/21 19:39:31;;;;;;;;;;;;;;;7.65;100.00;93851.63;10602850;27;2043;-75
2023/12/21 19:44:36;;;;;;;;;;;;;;;7.53;100.00;93841.44;10605274;27;4999;-71
2023/12/21 19:49:41;;;;;;;;;;;;;;;7.52;100.00;93823.06;10585193;27;2300;-66
2023/12/21 19:54:46;;;;;;;;;;;;;;;7.56;100.00;93819.44;10605607;27;2077;-68
2023/12/21 19:59:50;;;;;;;;;;;;;;;7.63;100.00;93835.06;10589462;27;1982;-68
2023/12/21 20:04:55;;;;;;;;;;;;;;;7.62;100.00;93824.69;10594825;27;1935;-70
2023/12/21 20:09:59;;;;;;;;;;;;;;;7.59;100.00;93802.81;10593614;27;2253;-67
2023/12/21 20:15:11;;;;;;;;;;;;;;;7.54;100.00;93821.63;10598744;27;1959;-68
2023/12/21 20:20:20;;;;;;;;;;;;;;;7.51;100.00;93778.69;10580891;27;1922;-68
2023/12/21 20:25:31;;;;;;;;;;;;;;;7.49;100.00;93780.84;10589900;27;2073;-69
2023/12/21 20:30:40;;;;;;;;;;;;;;;7.46;100.00;93811.66;10589153;27;2184;-68
2023/12/21 20:35:47;;;;;;;;;;;;;;;7.58;100.00;93825.31;10586011;27;2116;-69
2023/12/21 20:40:51;;;;;;;;;;;;;;;7.63;100.00;93818.25;10602746;27;4952;-69
2023/12/21 20:45:55;;;;;;;;;;;;;;;7.74;100.00;93843.66;10588227;27;2278;-67
2023/12/21 20:51:04;;;;;;;;;;;;;;;7.73;100.00;93836.75;10601734;27;2126;-67
2023/12/21 20:56:10;;;;;;;;;;;;;;;7.82;100.00;93832.25;10587765;27;2062;-68
2023/12/21 21:01:13;;;;;;;;;;;;;;;7.84;100.00;93846.13;10595664;27;2105;-68
2023/12/21 21:06:32;;;;;;;;;;;;;;;7.74;100.00;93883.78;10596634;27;1905;-68
2023/12/21 21:11:37;;;;;;;;;;;;;;;7.27;100.00;93881.31;10589450;27;1853;-67
2023/12/21 21:16:57;;;;;;;;;;;;;;;7.13;100.00;93906.47;10599057;27;1910;-67
2023/12/21 21:22:01;;;;;;;;;;;;;;;6.41;100.00;93992.34;10598099;27;1925;-68
2023/12/21 21:27:05;;;;;;;;;;;;;;;4.72;100.00;93985.59;10597973;27;2091;-67
2023/12/21 21:32:09;;;;;;;;;;;;;;;4.70;100.00;93995.69;10579669;27;1973;-77
2023/12/21 21:37:14;;;;;;;;;;;;;;;4.70;100.00;93987.72;10591103;27;2347;-68
2023/12/21 21:42:20;;;;;;;;;;;;;;;5.40;100.00;93985.38;10593783;27;5026;-67
2023/12/21 21:47:23;;;;;;;;;;;;;;;5.99;100.00;93998.56;10565185;27;2226;-68
2023/12/21 21:52:25;;;;;;;;;;;;;;;6.46;100.00;93978.91;10578246;27;1898;-66
2023/12/21 22:02:58;;;;;;;;;;;;;;;6.57;100.00;93977.69;10599736;27;1953;-68
2023/12/21 22:08:01;;;;;;;;;;;;;;;6.60;100.00;93957.59;10582809;27;1829;-68
2023/12/21 22:13:06;;;;;;;;;;;;;;;6.65;100.00;93965.53;10572546;27;1979;-66
2023/12/21 22:18:12;;;;;;;;;;;;;;;6.63;100.00;93973.84;10597760;27;2155;-66
2023/12/21 22:23:19;;;;;;;;;;;;;;;6.67;100.00;93971.38;10582054;27;1887;-66
2023/12/21 22:28:23;;;;;;;;;;;;;;;6.84;100.00;93981.50;10615506;27;1872;-68
2023/12/21 22:33:28;;;;;;;;;;;;;;;6.94;100.00;93978.66;10589913;27;1954;-65
2023/12/21 22:38:34;;;;;;;;;;;;;;;6.93;100.00;93947.69;10573565;27;2086;-67
2023/12/21 22:43:37;;;;;;;;;;;;;;;6.92;100.00;93978.94;10593949;27;1969;-66
2023/12/21 22:48:45;;;;;;;;;;;;;;;6.82;100.00;93981.81;10590770;27;2301;-67
2023/12/21 22:53:59;;;;;;;;;;;;;;;6.68;100.00;94003.13;10600948;27;2482;-67
2023/12/21 22:59:06;;;;;;;;;;;;;;;6.60;100.00;93978.97;10596184;27;1913;-70
2023/12/21 23:04:17;;;;;;;;;;;;;;;6.63;100.00;93995.19;10603918;27;1919;-66
2023/12/21 23:09:42;;;;;;;;;;;;;;;6.67;100.00;94028.22;10608197;27;2299;-68
2023/12/21 23:14:50;;;;;;;;;;;;;;;5.40;100.00;94155.13;10600826;27;2254;-66
2023/12/21 23:20:00;;;;;;;;;;;;;;;3.70;100.00;94166.22;10605337;27;2107;-67
2023/12/21 23:25:03;;;;;;;;;;;;;;;3.59;100.00;94154.81;10607738;27;2061;-67
2023/12/21 23:30:12;;;;;;;;;;;;;;;3.66;100.00;94173.94;10603005;27;2086;-67
2023/12/21 23:35:26;;;;;;;;;;;;;;;3.87;100.00;94168.56;10605728;27;1901;-68
2023/12/21 23:40:31;;;;;;;;;;;;;;;3.98;100.00;94172.78;10622052;27;1925;-67
2023/12/21 23:45:39;;;;;;;;;;;;;;;4.17;100.00;94157.03;10601625;27;5038;-68
2023/12/21 23:50:46;;;;;;;;;;;;;;;4.28;100.00;94138.09;10592616;27;2418;-70
2023/12/21 23:55:49;;;;;;;;;;;;;;;4.26;100.00;94126.94;10584309;27;1875;-66
